createdAt,value
2018-07-03T00:00:47.749Z,0.00
2018-07-03T00:01:47.654Z,0.00
2018-07-03T00:02:47.651Z,0.00
2018-07-03T00:03:47.473Z,0.00
2018-07-03T00:04:47.410Z,0.00
2018-07-03T00:05:47.291Z,0.00
2018-07-03T00:06:47.191Z,0.00
2018-07-03T00:07:47.097Z,0.00
2018-07-03T00:08:47.010Z,0.00
2018-07-03T00:09:47.038Z,0.00
2018-07-03T00:10:46.822Z,0.00
2018-07-03T00:11:46.729Z,0.00
2018-07-03T00:12:46.634Z,0.00
2018-07-03T00:13:46.540Z,0.00
2018-07-03T00:14:46.477Z,0.00
2018-07-03T00:15:46.354Z,0.00
2018-07-03T00:16:46.352Z,0.00
2018-07-03T00:17:46.171Z,0.00
2018-07-03T00:18:46.076Z,0.00
2018-07-03T00:19:46.010Z,0.00
2018-07-03T00:20:45.891Z,0.00
2018-07-03T00:21:45.794Z,0.00
2018-07-03T00:22:45.700Z,0.00
2018-07-03T00:23:45.701Z,0.00
2018-07-03T00:24:45.548Z,0.00
2018-07-03T00:25:45.424Z,0.00
2018-07-03T00:26:45.327Z,0.00
2018-07-03T00:27:45.236Z,0.00
2018-07-03T00:28:45.145Z,0.00
2018-07-03T00:29:45.087Z,0.00
2018-07-03T00:30:45.047Z,0.00
2018-07-03T00:31:44.864Z,0.00
2018-07-03T00:32:44.769Z,0.00
2018-07-03T00:33:44.673Z,0.00
2018-07-03T00:34:44.611Z,0.00
2018-07-03T00:35:44.487Z,0.00
2018-07-03T00:36:44.396Z,0.00
2018-07-03T00:37:44.390Z,0.00
2018-07-03T00:38:44.210Z,0.00
2018-07-03T00:39:44.145Z,0.00
2018-07-03T00:40:44.020Z,0.00
2018-07-03T00:41:43.928Z,0.00
2018-07-03T00:42:43.832Z,0.00
2018-07-03T00:43:43.737Z,0.00
2018-07-03T00:44:43.768Z,0.00
2018-07-03T00:45:43.549Z,0.00
2018-07-03T00:46:43.461Z,0.00
2018-07-03T00:47:43.365Z,0.00
2018-07-03T00:48:43.270Z,0.00
2018-07-03T00:49:43.208Z,0.00
2018-07-03T00:50:43.204Z,0.00
2018-07-03T00:51:42.990Z,0.00
2018-07-03T00:52:42.900Z,0.00
2018-07-03T00:53:42.802Z,0.00
2018-07-03T00:54:42.738Z,0.00
2018-07-03T00:55:42.616Z,0.00
2018-07-03T00:56:42.526Z,0.00
2018-07-03T00:57:42.432Z,0.00
2018-07-03T00:58:42.426Z,0.00
2018-07-03T00:59:42.273Z,0.00
2018-07-03T01:00:42.147Z,0.00
2018-07-03T01:01:42.052Z,0.00
2018-07-03T01:02:41.960Z,0.00
2018-07-03T01:03:41.865Z,0.00
2018-07-03T01:04:41.806Z,0.00
2018-07-03T01:05:41.679Z,0.00
2018-07-03T01:06:41.584Z,0.00
2018-07-03T01:07:41.490Z,0.00
2018-07-03T01:08:41.396Z,0.00
2018-07-03T01:09:41.350Z,0.00
2018-07-03T01:10:41.212Z,0.00
2018-07-03T01:11:41.117Z,0.00
2018-07-03T01:12:41.024Z,0.00
2018-07-03T01:13:40.932Z,0.00
2018-07-03T01:14:40.839Z,0.00
2018-07-03T01:15:40.772Z,0.00
2018-07-03T01:16:40.649Z,0.00
2018-07-03T01:17:40.552Z,0.00
2018-07-03T01:18:40.462Z,0.00
2018-07-03T01:19:40.397Z,0.00
2018-07-03T01:20:40.269Z,0.00
2018-07-03T01:21:40.177Z,0.00
2018-07-03T01:22:40.084Z,0.00
2018-07-03T01:23:39.991Z,0.00
2018-07-03T01:24:39.897Z,0.00
2018-07-03T01:25:39.833Z,0.00
2018-07-03T01:26:39.708Z,0.00
2018-07-03T01:27:39.614Z,0.00
2018-07-03T01:28:39.523Z,0.00
2018-07-03T01:29:39.428Z,0.00
2018-07-03T01:30:39.366Z,0.00
2018-07-03T01:31:39.239Z,0.00
2018-07-03T01:32:39.147Z,0.00
2018-07-03T01:33:39.055Z,0.00
2018-07-03T01:34:38.959Z,0.00
2018-07-03T01:35:38.894Z,0.00
2018-07-03T01:36:38.771Z,0.00
2018-07-03T01:37:38.677Z,0.00
2018-07-03T01:38:38.585Z,0.00
2018-07-03T01:39:38.486Z,0.00
2018-07-03T01:40:38.424Z,0.00
2018-07-03T01:41:38.302Z,0.00
2018-07-03T01:42:38.210Z,0.00
2018-07-03T01:43:38.114Z,0.00
2018-07-03T01:44:38.020Z,0.00
2018-07-03T01:45:37.960Z,0.00
2018-07-03T01:46:37.834Z,0.00
2018-07-03T01:47:37.741Z,0.00
2018-07-03T01:48:37.645Z,0.00
2018-07-03T01:49:37.570Z,0.00
2018-07-03T01:50:37.491Z,0.00
2018-07-03T01:51:37.364Z,0.00
2018-07-03T01:52:37.273Z,0.00
2018-07-03T01:53:37.178Z,0.00
2018-07-03T01:54:37.086Z,0.00
2018-07-03T01:55:37.026Z,0.00
2018-07-03T01:56:36.900Z,0.00
2018-07-03T01:57:36.804Z,0.00
2018-07-03T01:58:36.713Z,0.00
2018-07-03T01:59:36.620Z,0.00
2018-07-03T02:00:36.554Z,0.00
2018-07-03T02:01:36.430Z,0.00
2018-07-03T02:02:36.638Z,0.00
2018-07-03T02:03:36.243Z,0.00
2018-07-03T02:04:36.150Z,0.00
2018-07-03T02:05:36.088Z,0.00
2018-07-03T02:06:35.964Z,0.00
2018-07-03T02:07:35.868Z,0.00
2018-07-03T02:08:35.785Z,0.00
2018-07-03T02:09:35.685Z,0.00
2018-07-03T02:10:35.630Z,0.00
2018-07-03T02:11:35.498Z,0.00
2018-07-03T02:12:35.404Z,0.00
2018-07-03T02:13:35.310Z,0.00
2018-07-03T02:14:35.215Z,0.00
2018-07-03T02:15:35.157Z,0.00
2018-07-03T02:16:35.031Z,0.00
2018-07-03T02:17:34.936Z,0.00
2018-07-03T02:18:34.840Z,0.00
2018-07-03T02:19:34.748Z,0.00
2018-07-03T02:20:34.694Z,0.00
2018-07-03T02:21:34.559Z,0.00
2018-07-03T02:22:34.467Z,4.00
2018-07-03T02:23:34.373Z,4.00
2018-07-03T02:24:34.281Z,4.00
2018-07-03T02:25:34.220Z,0.00
2018-07-03T02:26:34.095Z,4.00
2018-07-03T02:27:34.000Z,4.00
2018-07-03T02:28:33.907Z,4.00
2018-07-03T02:29:33.817Z,4.00
2018-07-03T02:30:33.751Z,4.00
2018-07-03T02:31:33.631Z,8.00
2018-07-03T02:32:33.566Z,8.00
2018-07-03T02:33:33.440Z,8.00
2018-07-03T02:34:33.347Z,8.00
2018-07-03T02:35:33.254Z,12.00
2018-07-03T02:36:33.160Z,12.00
2018-07-03T02:37:33.096Z,12.00
2018-07-03T02:38:32.976Z,16.00
2018-07-03T02:39:32.894Z,20.00
2018-07-03T02:40:32.784Z,20.00
2018-07-03T02:41:32.693Z,24.00
2018-07-03T02:42:32.630Z,28.00
2018-07-03T02:43:32.597Z,32.00
2018-07-03T02:44:32.409Z,36.00
2018-07-03T02:45:32.316Z,36.00
2018-07-03T02:46:32.220Z,44.00
2018-07-03T02:47:32.132Z,48.00
2018-07-03T02:48:32.067Z,56.00
2018-07-03T02:49:31.954Z,64.00
2018-07-03T02:50:31.936Z,68.00
2018-07-03T02:51:31.754Z,80.00
2018-07-03T02:52:31.662Z,88.00
2018-07-03T02:53:31.599Z,96.00
2018-07-03T02:54:31.473Z,108.00
2018-07-03T02:55:31.377Z,120.00
2018-07-03T02:56:31.284Z,132.00
2018-07-03T02:57:31.280Z,144.00
2018-07-03T02:58:31.132Z,156.00
2018-07-03T02:59:31.006Z,172.00
2018-07-03T03:00:30.911Z,188.00
2018-07-03T03:01:30.815Z,208.00
2018-07-03T03:02:30.722Z,224.00
2018-07-03T03:03:30.661Z,240.00
2018-07-03T03:04:30.624Z,260.00
2018-07-03T03:05:30.440Z,280.00
2018-07-03T03:06:30.343Z,304.00
2018-07-03T03:07:30.254Z,324.00
2018-07-03T03:08:30.192Z,348.00
2018-07-03T03:09:30.083Z,372.00
2018-07-03T03:10:29.972Z,396.00
2018-07-03T03:11:29.972Z,420.00
2018-07-03T03:12:29.806Z,448.00
2018-07-03T03:13:29.725Z,476.00
2018-07-03T03:14:29.593Z,504.00
2018-07-03T03:15:29.502Z,536.00
2018-07-03T03:16:29.409Z,560.00
2018-07-03T03:17:29.312Z,592.00
2018-07-03T03:18:29.344Z,624.00
2018-07-03T03:19:29.130Z,656.00
2018-07-03T03:20:29.035Z,684.00
2018-07-03T03:21:28.941Z,716.00
2018-07-03T03:22:28.873Z,752.00
2018-07-03T03:23:28.787Z,780.00
2018-07-03T03:24:28.657Z,816.00
2018-07-03T03:25:28.653Z,848.00
2018-07-03T03:26:28.470Z,880.00
2018-07-03T03:27:28.376Z,912.00
2018-07-03T03:28:28.315Z,948.00
2018-07-03T03:29:28.190Z,980.00
2018-07-03T03:30:28.096Z,1012.00
2018-07-03T03:31:28.003Z,1048.00
2018-07-03T03:32:28.003Z,1076.00
2018-07-03T03:33:27.849Z,1112.00
2018-07-03T03:34:27.722Z,1140.00
2018-07-03T03:35:27.628Z,1172.00
2018-07-03T03:36:27.539Z,1200.00
2018-07-03T03:37:27.442Z,1232.00
2018-07-03T03:38:27.379Z,1264.00
2018-07-03T03:39:27.347Z,1288.00
2018-07-03T03:40:27.166Z,1320.00
2018-07-03T03:41:27.066Z,1348.00
2018-07-03T03:42:26.969Z,1380.00
2018-07-03T03:43:26.910Z,1412.00
2018-07-03T03:44:26.784Z,1440.00
2018-07-03T03:45:26.689Z,1468.00
2018-07-03T03:46:26.686Z,1500.00
2018-07-03T03:47:26.508Z,1528.00
2018-07-03T03:48:26.443Z,1556.00
2018-07-03T03:49:26.319Z,1584.00
2018-07-03T03:50:26.221Z,1612.00
2018-07-03T03:51:26.131Z,1640.00
2018-07-03T03:52:26.037Z,1664.00
2018-07-03T03:53:26.064Z,1696.00
2018-07-03T03:54:25.847Z,1724.00
2018-07-03T03:55:25.758Z,1752.00
2018-07-03T03:56:25.666Z,1784.00
2018-07-03T03:57:25.569Z,1804.00
2018-07-03T03:58:25.507Z,1832.00
2018-07-03T03:59:25.382Z,1860.00
2018-07-03T04:00:25.379Z,1884.00
2018-07-03T04:01:25.197Z,1912.00
2018-07-03T04:02:25.098Z,1940.00
2018-07-03T04:03:25.043Z,1960.00
2018-07-03T04:04:24.932Z,1992.00
2018-07-03T04:05:24.820Z,2016.00
2018-07-03T04:06:24.728Z,2040.00
2018-07-03T04:07:24.637Z,2064.00
2018-07-03T04:08:24.577Z,2092.00
2018-07-03T04:09:24.444Z,2120.00
2018-07-03T04:10:24.352Z,2148.00
2018-07-03T04:11:24.258Z,2180.00
2018-07-03T04:12:24.163Z,2216.00
2018-07-03T04:13:24.109Z,2244.00
2018-07-03T04:14:23.976Z,2268.00
2018-07-03T04:15:23.884Z,2296.00
2018-07-03T04:16:23.794Z,2324.00
2018-07-03T04:17:23.698Z,2356.00
2018-07-03T04:18:23.604Z,2368.00
2018-07-03T04:19:23.541Z,2388.00
2018-07-03T04:20:23.418Z,2408.00
2018-07-03T04:21:23.324Z,2440.00
2018-07-03T04:22:23.232Z,2472.00
2018-07-03T04:23:23.140Z,2496.00
2018-07-03T04:24:23.076Z,2520.00
2018-07-03T04:25:22.953Z,2544.00
2018-07-03T04:26:22.858Z,2560.00
2018-07-03T04:27:22.765Z,2572.00
2018-07-03T04:28:22.674Z,2588.00
2018-07-03T04:29:22.612Z,2612.00
2018-07-03T04:30:22.485Z,2656.00
2018-07-03T04:31:22.393Z,2692.00
2018-07-03T04:32:22.302Z,2788.00
2018-07-03T04:33:22.209Z,3124.00
2018-07-03T04:34:22.147Z,3888.00
2018-07-03T04:35:22.020Z,3812.00
2018-07-03T04:36:21.931Z,2856.00
2018-07-03T04:37:21.836Z,2884.00
2018-07-03T04:38:21.743Z,2832.00
2018-07-03T04:39:21.680Z,2836.00
2018-07-03T04:40:21.554Z,2848.00
2018-07-03T04:41:21.518Z,2872.00
2018-07-03T04:42:21.374Z,2920.00
2018-07-03T04:43:21.279Z,2936.00
2018-07-03T04:44:21.220Z,2924.00
2018-07-03T04:45:21.097Z,2932.00
2018-07-03T04:46:21.003Z,2952.00
2018-07-03T04:47:20.912Z,2968.00
2018-07-03T04:48:20.820Z,2984.00
2018-07-03T04:49:20.764Z,3000.00
2018-07-03T04:50:20.636Z,3028.00
2018-07-03T04:51:20.544Z,3076.00
2018-07-03T04:52:20.452Z,3120.00
2018-07-03T04:53:20.418Z,3248.00
2018-07-03T04:54:20.299Z,3320.00
2018-07-03T04:55:20.175Z,3336.00
2018-07-03T04:56:20.082Z,3388.00
2018-07-03T04:57:19.995Z,3280.00
2018-07-03T04:58:19.901Z,3248.00
2018-07-03T04:59:19.843Z,3316.00
2018-07-03T05:00:19.719Z,3468.00
2018-07-03T05:01:19.629Z,3492.00
2018-07-03T05:02:19.547Z,3440.00
2018-07-03T05:03:19.441Z,3484.00
2018-07-03T05:04:19.382Z,3836.00
2018-07-03T05:05:19.258Z,3760.00
2018-07-03T05:06:19.167Z,3460.00
2018-07-03T05:07:19.074Z,3444.00
2018-07-03T05:08:18.985Z,3488.00
2018-07-03T05:09:18.925Z,3536.00
2018-07-03T05:10:18.799Z,3416.00
2018-07-03T05:11:18.708Z,3348.00
2018-07-03T05:12:18.620Z,3384.00
2018-07-03T05:13:18.532Z,3520.00
2018-07-03T05:14:18.473Z,3664.00
2018-07-03T05:15:18.346Z,3832.00
2018-07-03T05:16:18.257Z,3988.00
2018-07-03T05:17:18.166Z,4520.00
2018-07-03T05:18:18.072Z,4320.00
2018-07-03T05:19:18.014Z,4252.00
2018-07-03T05:20:17.893Z,4420.00
2018-07-03T05:21:17.803Z,4536.00
2018-07-03T05:22:17.712Z,4560.00
2018-07-03T05:23:17.725Z,4608.00
2018-07-03T05:24:17.563Z,4540.00
2018-07-03T05:25:17.437Z,4232.00
2018-07-03T05:26:17.349Z,4188.00
2018-07-03T05:27:17.254Z,4192.00
2018-07-03T05:28:17.166Z,4212.00
2018-07-03T05:29:17.108Z,4220.00
2018-07-03T05:30:17.075Z,4716.00
2018-07-03T05:31:16.894Z,5492.00
2018-07-03T05:32:16.806Z,5512.00
2018-07-03T05:33:16.712Z,5368.00
2018-07-03T05:34:16.675Z,4912.00
2018-07-03T05:35:16.534Z,4696.00
2018-07-03T05:36:16.443Z,4280.00
2018-07-03T05:37:16.486Z,4260.00
2018-07-03T05:38:16.263Z,4388.00
2018-07-03T05:39:16.206Z,4820.00
2018-07-03T05:40:16.086Z,5748.00
2018-07-03T05:41:15.990Z,5748.00
2018-07-03T05:42:15.900Z,5268.00
2018-07-03T05:43:15.811Z,5920.00
2018-07-03T05:44:15.828Z,5036.00
2018-07-03T05:45:15.632Z,4584.00
2018-07-03T05:46:15.540Z,5148.00
2018-07-03T05:47:15.452Z,5152.00
2018-07-03T05:48:15.362Z,4500.00
2018-07-03T05:49:15.273Z,4440.00
2018-07-03T05:50:15.216Z,4488.00
2018-07-03T05:51:15.185Z,4572.00
2018-07-03T05:52:15.006Z,4700.00
2018-07-03T05:53:14.913Z,4640.00
2018-07-03T05:54:14.825Z,5600.00
2018-07-03T05:55:14.764Z,5796.00
2018-07-03T05:56:14.654Z,4940.00
2018-07-03T05:57:14.557Z,4864.00
2018-07-03T05:58:14.623Z,4648.00
2018-07-03T05:59:14.381Z,4600.00
2018-07-03T06:00:14.321Z,4680.00
2018-07-03T06:01:14.201Z,4484.00
2018-07-03T06:02:14.115Z,4304.00
2018-07-03T06:03:14.023Z,4256.00
2018-07-03T06:04:13.936Z,4204.00
2018-07-03T06:05:13.949Z,4232.00
2018-07-03T06:06:13.758Z,4296.00
2018-07-03T06:07:13.666Z,4464.00
2018-07-03T06:08:13.581Z,4328.00
2018-07-03T06:09:13.549Z,4756.00
2018-07-03T06:10:13.435Z,4648.00
2018-07-03T06:11:13.315Z,4504.00
2018-07-03T06:12:13.356Z,4432.00
2018-07-03T06:13:13.136Z,4396.00
2018-07-03T06:14:13.051Z,4420.00
2018-07-03T06:15:12.993Z,4632.00
2018-07-03T06:16:12.869Z,5180.00
2018-07-03T06:17:12.782Z,5876.00
2018-07-03T06:18:12.694Z,5912.00
2018-07-03T06:19:12.604Z,4824.00
2018-07-03T06:20:12.550Z,4360.00
2018-07-03T06:21:12.568Z,4288.00
2018-07-03T06:22:12.558Z,4288.00
2018-07-03T06:23:12.253Z,4296.00
2018-07-03T06:24:12.164Z,4340.00
2018-07-03T06:25:12.105Z,4368.00
2018-07-03T06:26:11.986Z,4600.00
2018-07-03T06:27:11.902Z,4924.00
2018-07-03T06:28:11.808Z,4560.00
2018-07-03T06:29:11.723Z,4408.00
2018-07-03T06:30:11.664Z,4352.00
2018-07-03T06:31:11.544Z,4404.00
2018-07-03T06:32:11.456Z,4408.00
2018-07-03T06:33:11.366Z,4436.00
2018-07-03T06:34:11.278Z,4468.00
2018-07-03T06:35:11.222Z,4536.00
2018-07-03T06:36:11.103Z,4736.00
2018-07-03T06:37:11.024Z,5108.00
2018-07-03T06:38:10.925Z,6908.00
2018-07-03T06:39:10.838Z,12776.00
2018-07-03T06:40:10.784Z,24864.00
2018-07-03T06:41:10.662Z,43360.00
2018-07-03T06:42:10.571Z,53120.00
2018-07-03T06:43:10.485Z,47936.00
2018-07-03T06:44:10.399Z,44128.00
2018-07-03T06:45:10.341Z,44064.00
2018-07-03T06:46:10.224Z,44576.00
2018-07-03T06:47:10.136Z,44576.00
2018-07-03T06:48:10.048Z,47296.00
2018-07-03T06:49:09.959Z,64832.00
2018-07-03T06:50:09.902Z,66240.00
2018-07-03T06:51:09.787Z,65760.00
2018-07-03T06:52:09.702Z,64704.00
2018-07-03T06:53:09.615Z,59168.00
2018-07-03T06:54:09.532Z,50944.00
2018-07-03T06:55:09.476Z,44224.00
2018-07-03T06:56:09.360Z,42944.00
2018-07-03T06:57:09.272Z,45504.00
2018-07-03T06:58:09.188Z,49728.00
2018-07-03T06:59:09.103Z,51104.00
2018-07-03T07:00:09.051Z,58368.00
2018-07-03T07:01:08.932Z,66144.00
2018-07-03T07:02:08.848Z,64672.00
2018-07-03T07:03:08.762Z,58112.00
2018-07-03T07:04:08.680Z,55872.00
2018-07-03T07:05:08.628Z,55968.00
2018-07-03T07:06:08.515Z,55776.00
2018-07-03T07:07:08.431Z,55040.00
2018-07-03T07:08:08.352Z,59552.00
2018-07-03T07:09:08.367Z,59488.00
2018-07-03T07:10:08.213Z,60224.00
2018-07-03T07:11:08.098Z,62912.00
2018-07-03T07:12:08.024Z,65856.00
2018-07-03T07:13:07.940Z,66080.00
2018-07-03T07:14:07.855Z,69600.00
2018-07-03T07:15:07.856Z,69376.00
2018-07-03T07:16:07.690Z,63552.00
2018-07-03T07:17:07.609Z,58272.00
2018-07-03T07:18:07.529Z,62592.00
2018-07-03T07:19:07.447Z,65472.00
2018-07-03T07:20:07.368Z,68608.00
2018-07-03T07:21:07.319Z,68544.00
2018-07-03T07:22:07.319Z,66144.00
2018-07-03T07:23:07.159Z,66592.00
2018-07-03T07:24:07.047Z,64672.00
2018-07-03T07:25:06.967Z,67104.00
2018-07-03T07:26:06.914Z,71680.00
2018-07-03T07:27:06.809Z,72032.00
2018-07-03T07:28:06.726Z,68768.00
2018-07-03T07:29:06.735Z,66560.00
2018-07-03T07:30:06.564Z,63136.00
2018-07-03T07:31:06.518Z,62624.00
2018-07-03T07:32:06.411Z,63200.00
2018-07-03T07:33:06.331Z,67168.00
2018-07-03T07:34:06.245Z,68096.00
2018-07-03T07:35:06.172Z,68320.00
2018-07-03T07:36:06.209Z,73408.00
2018-07-03T07:37:06.008Z,75712.00
2018-07-03T07:38:05.933Z,75136.00
2018-07-03T07:39:05.853Z,73920.00
2018-07-03T07:40:05.775Z,71520.00
2018-07-03T07:41:05.729Z,69248.00
2018-07-03T07:42:05.616Z,68416.00
2018-07-03T07:43:05.622Z,66944.00
2018-07-03T07:44:05.458Z,71040.00
2018-07-03T07:45:05.383Z,46048.00
2018-07-03T07:46:05.332Z,70688.00
2018-07-03T07:47:05.227Z,67808.00
2018-07-03T07:48:05.147Z,71040.00
2018-07-03T07:49:05.066Z,72544.00
2018-07-03T07:50:05.080Z,75488.00
2018-07-03T07:51:04.943Z,83616.00
2018-07-03T07:52:04.834Z,88864.00
2018-07-03T07:53:04.756Z,91264.00
2018-07-03T07:54:04.680Z,93184.00
2018-07-03T07:55:04.599Z,89856.00
2018-07-03T07:56:04.556Z,86112.00
2018-07-03T07:57:04.548Z,85984.00
2018-07-03T07:58:04.361Z,85440.00
2018-07-03T07:59:04.287Z,83744.00
2018-07-03T08:00:04.209Z,76576.00
2018-07-03T08:01:04.160Z,74208.00
2018-07-03T08:02:04.054Z,72608.00
2018-07-03T08:03:03.972Z,71424.00
2018-07-03T08:04:03.998Z,70688.00
2018-07-03T08:05:03.816Z,70464.00
2018-07-03T08:06:03.774Z,68544.00
2018-07-03T08:07:03.663Z,67104.00
2018-07-03T08:08:03.587Z,64832.00
2018-07-03T08:09:03.521Z,62272.00
2018-07-03T08:10:03.433Z,62528.00
2018-07-03T08:11:03.484Z,63872.00
2018-07-03T08:12:03.275Z,65600.00
2018-07-03T08:13:03.197Z,66976.00
2018-07-03T08:14:03.119Z,66400.00
2018-07-03T08:15:03.043Z,67904.00
2018-07-03T08:16:02.995Z,69376.00
2018-07-03T08:17:02.890Z,68384.00
2018-07-03T08:18:02.906Z,72512.00
2018-07-03T08:19:02.777Z,76544.00
2018-07-03T08:20:02.652Z,79264.00
2018-07-03T08:21:02.603Z,83136.00
2018-07-03T08:22:02.494Z,86240.00
2018-07-03T08:23:02.418Z,87552.00
2018-07-03T08:24:02.344Z,87648.00
2018-07-03T08:25:02.266Z,92960.00
2018-07-03T08:26:02.221Z,88032.00
2018-07-03T08:27:02.111Z,86368.00
2018-07-03T08:28:02.032Z,85696.00
2018-07-03T08:29:01.953Z,86272.00
2018-07-03T08:30:01.884Z,81696.00
2018-07-03T08:31:01.826Z,77056.00
2018-07-03T08:32:01.722Z,72832.00
2018-07-03T08:33:01.639Z,65696.00
2018-07-03T08:34:01.575Z,68352.00
2018-07-03T08:35:01.489Z,72800.00
2018-07-03T08:36:01.438Z,72160.00
2018-07-03T08:37:01.330Z,69056.00
2018-07-03T08:38:01.254Z,67200.00
2018-07-03T08:39:01.175Z,67552.00
2018-07-03T08:40:01.098Z,65344.00
2018-07-03T08:41:01.048Z,66912.00
2018-07-03T08:42:00.937Z,69888.00
2018-07-03T08:43:00.862Z,71104.00
2018-07-03T08:44:00.786Z,72928.00
2018-07-03T08:45:00.708Z,72512.00
2018-07-03T08:46:00.661Z,71584.00
2018-07-03T08:47:00.552Z,71040.00
2018-07-03T08:48:00.471Z,69920.00
2018-07-03T08:49:00.396Z,70432.00
2018-07-03T08:50:00.317Z,70752.00
2018-07-03T08:51:00.241Z,75136.00
2018-07-03T08:52:00.211Z,77952.00
2018-07-03T08:53:00.089Z,78688.00
2018-07-03T08:54:00.010Z,85888.00
2018-07-03T08:54:59.971Z,87456.00
2018-07-03T08:55:59.857Z,92288.00
2018-07-03T08:56:59.802Z,87584.00
2018-07-03T08:57:59.698Z,88704.00
2018-07-03T08:58:59.618Z,85216.00
2018-07-03T08:59:59.538Z,83424.00
2018-07-03T09:00:59.466Z,77536.00
2018-07-03T09:01:59.420Z,71264.00
2018-07-03T09:02:59.308Z,71136.00
2018-07-03T09:03:59.230Z,69280.00
2018-07-03T09:04:59.153Z,70656.00
2018-07-03T09:05:59.076Z,73216.00
2018-07-03T09:06:59.028Z,74816.00
2018-07-03T09:07:58.919Z,77216.00
2018-07-03T09:08:58.841Z,80000.00
2018-07-03T09:09:58.761Z,84288.00
2018-07-03T09:10:58.685Z,84800.00
2018-07-03T09:11:58.637Z,89440.00
2018-07-03T09:12:58.526Z,91552.00
2018-07-03T09:13:58.451Z,91296.00
2018-07-03T09:14:58.375Z,89568.00
2018-07-03T09:15:58.295Z,92640.00
2018-07-03T09:16:58.251Z,88384.00
2018-07-03T09:17:58.188Z,86368.00
2018-07-03T09:18:58.067Z,78240.00
2018-07-03T09:19:57.987Z,72768.00
2018-07-03T09:20:57.920Z,75136.00
2018-07-03T09:21:57.864Z,71904.00
2018-07-03T09:22:57.752Z,79584.00
2018-07-03T09:23:57.680Z,84512.00
2018-07-03T09:24:57.605Z,68864.00
2018-07-03T09:25:57.522Z,79968.00
2018-07-03T09:26:57.566Z,80192.00
2018-07-03T09:27:57.365Z,88096.00
2018-07-03T09:28:57.294Z,80928.00
2018-07-03T09:29:57.211Z,74880.00
2018-07-03T09:30:57.132Z,93568.00
2018-07-03T09:31:57.087Z,116448.00
2018-07-03T09:32:56.977Z,105920.00
2018-07-03T09:33:57.008Z,88192.00
2018-07-03T09:34:56.825Z,90176.00
2018-07-03T09:35:56.746Z,89024.00
2018-07-03T09:36:56.701Z,100480.00
2018-07-03T09:37:56.594Z,107392.00
2018-07-03T09:38:56.520Z,99680.00
2018-07-03T09:39:56.436Z,93632.00
2018-07-03T09:40:56.449Z,95648.00
2018-07-03T09:41:56.312Z,97952.00
2018-07-03T09:42:56.205Z,96128.00
2018-07-03T09:43:56.130Z,103904.00
2018-07-03T09:44:56.049Z,108736.00
2018-07-03T09:45:55.984Z,107232.00
2018-07-03T09:46:55.929Z,97888.00
2018-07-03T09:47:55.910Z,97248.00
2018-07-03T09:48:55.748Z,93696.00
2018-07-03T09:49:55.661Z,95424.00
2018-07-03T09:50:55.583Z,104160.00
2018-07-03T09:51:55.540Z,94144.00
2018-07-03T09:52:55.430Z,96416.00
2018-07-03T09:53:55.350Z,90048.00
2018-07-03T09:54:55.413Z,93184.00
2018-07-03T09:55:55.198Z,87008.00
2018-07-03T09:56:55.151Z,93312.00
2018-07-03T09:57:55.041Z,111616.00
2018-07-03T09:58:54.963Z,111968.00
2018-07-03T09:59:54.886Z,121792.00
2018-07-03T10:00:54.812Z,122016.00
2018-07-03T10:01:54.852Z,97184.00
2018-07-03T10:02:54.662Z,107904.00
2018-07-03T10:03:54.579Z,110176.00
2018-07-03T10:04:54.503Z,106144.00
2018-07-03T10:05:54.425Z,104768.00
2018-07-03T10:06:54.381Z,76896.00
2018-07-03T10:07:54.270Z,87488.00
2018-07-03T10:08:54.289Z,104256.00
2018-07-03T10:09:54.130Z,99424.00
2018-07-03T10:10:54.040Z,102720.00
2018-07-03T10:11:54.001Z,101920.00
2018-07-03T10:12:53.889Z,109696.00
2018-07-03T10:13:53.813Z,113408.00
2018-07-03T10:14:53.729Z,105600.00
2018-07-03T10:15:53.748Z,102624.00
2018-07-03T10:16:53.606Z,104864.00
2018-07-03T10:17:53.497Z,107712.00
2018-07-03T10:18:53.488Z,104128.00
2018-07-03T10:19:53.349Z,110016.00
2018-07-03T10:20:53.268Z,109376.00
2018-07-03T10:21:53.222Z,103328.00
2018-07-03T10:22:53.217Z,109472.00
2018-07-03T10:23:53.037Z,104480.00
2018-07-03T10:24:52.957Z,111200.00
2018-07-03T10:25:52.883Z,118432.00
2018-07-03T10:26:52.809Z,129024.00
2018-07-03T10:27:52.760Z,119616.00
2018-07-03T10:28:52.649Z,105280.00
2018-07-03T10:29:52.665Z,107040.00
2018-07-03T10:30:52.493Z,132992.00
2018-07-03T10:31:52.423Z,121280.00
2018-07-03T10:32:52.383Z,115136.00
2018-07-03T10:33:52.264Z,115552.00
2018-07-03T10:34:52.202Z,120064.00
2018-07-03T10:35:52.108Z,125696.00
2018-07-03T10:36:52.033Z,112416.00
2018-07-03T10:37:51.987Z,118240.00
2018-07-03T10:38:51.877Z,120064.00
2018-07-03T10:39:51.799Z,110624.00
2018-07-03T10:40:51.727Z,102272.00
2018-07-03T10:41:51.645Z,101056.00
2018-07-03T10:42:51.600Z,100928.00
2018-07-03T10:43:51.492Z,93984.00
2018-07-03T10:44:51.413Z,92416.00
2018-07-03T10:45:51.339Z,93280.00
2018-07-03T10:46:51.259Z,99264.00
2018-07-03T10:47:51.217Z,103008.00
2018-07-03T10:48:51.125Z,107904.00
2018-07-03T10:49:51.032Z,105152.00
2018-07-03T10:50:50.952Z,101056.00
2018-07-03T10:51:50.877Z,99360.00
2018-07-03T10:52:50.830Z,104352.00
2018-07-03T10:53:50.721Z,104800.00
2018-07-03T10:54:50.643Z,102240.00
2018-07-03T10:55:50.569Z,108032.00
2018-07-03T10:56:50.492Z,97024.00
2018-07-03T10:57:50.445Z,105920.00
2018-07-03T10:58:50.340Z,98720.00
2018-07-03T10:59:50.261Z,95072.00
2018-07-03T11:00:50.181Z,107840.00
2018-07-03T11:01:50.104Z,109408.00
2018-07-03T11:02:50.059Z,109408.00
2018-07-03T11:03:49.953Z,112448.00
2018-07-03T11:04:49.876Z,117216.00
2018-07-03T11:05:49.798Z,115584.00
2018-07-03T11:06:49.726Z,110272.00
2018-07-03T11:07:49.678Z,106144.00
2018-07-03T11:08:49.566Z,101216.00
2018-07-03T11:09:49.500Z,101952.00
2018-07-03T11:10:49.417Z,99488.00
2018-07-03T11:11:49.346Z,98336.00
2018-07-03T11:12:49.296Z,105376.00
2018-07-03T11:13:49.261Z,107264.00
2018-07-03T11:14:49.109Z,117472.00
2018-07-03T11:15:49.035Z,109312.00
2018-07-03T11:16:48.958Z,104960.00
2018-07-03T11:17:48.910Z,109952.00
2018-07-03T11:18:48.801Z,99328.00
2018-07-03T11:19:48.790Z,102592.00
2018-07-03T11:20:48.651Z,97600.00
2018-07-03T11:21:48.570Z,103360.00
2018-07-03T11:22:48.533Z,107136.00
2018-07-03T11:23:48.417Z,112992.00
2018-07-03T11:24:48.341Z,112960.00
2018-07-03T11:25:48.266Z,100704.00
2018-07-03T11:26:48.188Z,101472.00
2018-07-03T11:27:48.144Z,109728.00
2018-07-03T11:28:48.037Z,111456.00
2018-07-03T11:29:47.962Z,105888.00
2018-07-03T11:30:47.880Z,96608.00
2018-07-03T11:31:47.811Z,94368.00
2018-07-03T11:32:47.765Z,99232.00
2018-07-03T11:33:47.705Z,100352.00
2018-07-03T11:34:47.581Z,101696.00
2018-07-03T11:35:47.502Z,108352.00
2018-07-03T11:36:47.421Z,113792.00
2018-07-03T11:37:47.430Z,112736.00
2018-07-03T11:38:47.275Z,114976.00
2018-07-03T11:39:47.197Z,109376.00
2018-07-03T11:40:47.117Z,112224.00
2018-07-03T11:41:47.042Z,104576.00
2018-07-03T11:42:46.996Z,89760.00
2018-07-03T11:43:46.890Z,95872.00
2018-07-03T11:44:46.866Z,109696.00
2018-07-03T11:45:46.735Z,111584.00
2018-07-03T11:46:46.659Z,110496.00
2018-07-03T11:47:46.614Z,114720.00
2018-07-03T11:48:46.507Z,117728.00
2018-07-03T11:49:46.429Z,108704.00
2018-07-03T11:50:46.354Z,101824.00
2018-07-03T11:51:46.276Z,108416.00
2018-07-03T11:52:46.298Z,104416.00
2018-07-03T11:53:46.156Z,102048.00
2018-07-03T11:54:46.048Z,111840.00
2018-07-03T11:55:45.973Z,104704.00
2018-07-03T11:56:45.895Z,104096.00
2018-07-03T11:57:45.820Z,107296.00
2018-07-03T11:58:45.769Z,101600.00
2018-07-03T11:59:45.662Z,97472.00
2018-07-03T12:00:45.587Z,100512.00
2018-07-03T12:01:45.566Z,108800.00
2018-07-03T12:02:45.441Z,103872.00
2018-07-03T12:03:45.391Z,97472.00
2018-07-03T12:04:45.280Z,105664.00
2018-07-03T12:05:45.203Z,110144.00
2018-07-03T12:06:45.134Z,101184.00
2018-07-03T12:07:45.056Z,101184.00